createdAt,value
2023-02-27T00:00:48.058Z,2.90
2023-02-27T00:04:50.349Z,2.40
2023-02-27T00:08:52.007Z,2.42
2023-02-27T00:12:53.673Z,2.85
2023-02-27T00:16:55.317Z,2.30
2023-02-27T00:20:57.049Z,2.80
2023-02-27T00:24:58.879Z,3.42
2023-02-27T00:29:00.543Z,3.62
2023-02-27T00:33:02.225Z,4.10
2023-02-27T00:37:03.994Z,3.58
2023-02-27T00:41:05.782Z,3.53
2023-02-27T00:45:08.195Z,3.62
2023-02-27T00:49:09.821Z,3.78
2023-02-27T00:53:11.559Z,3.67
2023-02-27T00:57:13.253Z,4.12
2023-02-27T01:01:15.283Z,4.20
2023-02-27T01:05:17.051Z,3.95
2023-02-27T01:09:18.756Z,4.25
2023-02-27T01:13:20.558Z,3.92
2023-02-27T01:17:22.242Z,3.62
2023-02-27T01:21:24.441Z,3.55
2023-02-27T01:25:26.336Z,3.65
2023-02-27T01:29:28.090Z,3.90
2023-02-27T01:33:29.736Z,3.78
2023-02-27T01:37:31.363Z,3.70
2023-02-27T01:41:33.215Z,3.55
2023-02-27T01:45:39.442Z,3.55
2023-02-27T01:49:41.167Z,3.20
2023-02-27T01:53:45.521Z,3.78
2023-02-27T01:57:49.200Z,3.00
2023-02-27T02:01:51.755Z,3.53
2023-02-27T02:05:55.804Z,2.90
2023-02-27T02:10:00.120Z,3.45
2023-02-27T02:14:10.614Z,3.40
2023-02-27T02:18:32.561Z,3.80
2023-02-27T02:22:59.692Z,3.53
2023-02-27T02:27:13.377Z,3.67
2023-02-27T02:31:46.093Z,3.05
2023-02-27T02:36:06.575Z,4.45
2023-02-27T02:40:08.201Z,3.65
2023-02-27T02:44:28.779Z,3.50
2023-02-27T02:48:39.448Z,4.12
2023-02-27T02:52:57.673Z,3.58
2023-02-27T02:57:09.939Z,4.07
2023-02-27T03:01:24.808Z,3.70
2023-02-27T03:05:42.392Z,4.20
2023-02-27T03:09:46.274Z,3.50
2023-02-27T03:13:58.249Z,3.80
2023-02-27T03:18:07.933Z,3.62
2023-02-27T03:22:35.471Z,3.72
2023-02-27T03:26:42.569Z,3.87
2023-02-27T03:30:51.202Z,3.72
2023-02-27T03:34:53.217Z,4.37
2023-02-27T03:39:05.103Z,3.72
2023-02-27T03:43:06.682Z,3.87
2023-02-27T03:47:08.376Z,4.20
2023-02-27T03:51:12.468Z,4.32
2023-02-27T03:55:21.470Z,3.87
2023-02-27T03:59:27.084Z,3.70
2023-02-27T04:03:30.130Z,3.90
2023-02-27T04:07:40.077Z,4.43
2023-02-27T04:11:54.148Z,3.60
2023-02-27T04:16:11.858Z,4.18
2023-02-27T04:20:37.572Z,4.40
2023-02-27T04:25:16.673Z,4.22
2023-02-27T04:29:25.160Z,3.70
2023-02-27T04:33:32.599Z,4.07
2023-02-27T04:37:43.281Z,3.60
2023-02-27T04:41:54.108Z,3.50
2023-02-27T04:46:00.083Z,3.87
2023-02-27T04:50:09.671Z,4.20
2023-02-27T04:54:16.002Z,4.37
2023-02-27T04:58:26.667Z,4.00
2023-02-27T05:02:33.736Z,4.25
2023-02-27T05:06:37.876Z,3.90
2023-02-27T05:10:58.551Z,4.43
2023-02-27T05:15:15.200Z,4.32
2023-02-27T05:19:17.530Z,4.30
2023-02-27T05:23:49.595Z,4.25
2023-02-27T05:27:56.514Z,4.07
2023-02-27T05:32:14.824Z,4.28
2023-02-27T05:36:26.016Z,4.22
2023-02-27T05:40:43.414Z,4.60
2023-02-27T05:44:51.477Z,5.18
2023-02-27T05:48:59.546Z,4.37
2023-02-27T05:53:06.042Z,4.85
2023-02-27T05:57:12.332Z,4.80
2023-02-27T06:01:13.991Z,5.37
2023-02-27T06:05:17.541Z,4.30
2023-02-27T06:09:20.341Z,4.37
2023-02-27T06:13:22.772Z,4.28
2023-02-27T06:17:24.451Z,4.47
2023-02-27T06:21:26.045Z,4.72
2023-02-27T06:25:27.756Z,10.45
2023-02-27T06:29:29.983Z,4.97
2023-02-27T06:33:33.054Z,4.78
2023-02-27T06:37:34.904Z,4.03
2023-02-27T06:41:36.513Z,4.25
2023-02-27T06:45:38.788Z,4.65
2023-02-27T06:49:40.462Z,4.53
2023-02-27T06:53:42.147Z,4.62
2023-02-27T06:57:43.786Z,4.75
2023-02-27T07:01:45.470Z,4.53
2023-02-27T07:05:47.118Z,4.40
2023-02-27T07:09:48.876Z,8.68
2023-02-27T07:13:50.575Z,6.43
2023-02-27T07:17:54.189Z,5.18
2023-02-27T07:21:55.829Z,4.78
2023-02-27T07:25:57.494Z,5.47
2023-02-27T07:29:59.145Z,5.32
2023-02-27T07:34:00.993Z,5.07
2023-02-27T07:38:03.215Z,5.00
2023-02-27T07:42:05.090Z,4.93
2023-02-27T07:46:06.761Z,4.68
2023-02-27T07:50:09.289Z,4.82
2023-02-27T07:54:10.955Z,7.68
2023-02-27T07:58:12.630Z,5.62
2023-02-27T08:02:14.516Z,5.53
2023-02-27T08:06:16.232Z,5.37
2023-02-27T08:10:18.154Z,4.78
2023-02-27T08:14:20.334Z,4.80
2023-02-27T08:18:21.969Z,4.60
2023-02-27T08:22:23.560Z,6.62
2023-02-27T08:26:25.812Z,4.03
2023-02-27T08:30:27.771Z,3.95
2023-02-27T08:34:30.206Z,3.92
2023-02-27T08:38:31.893Z,3.47
2023-02-27T08:42:33.880Z,3.05
2023-02-27T08:46:35.577Z,2.97
2023-02-27T08:50:37.200Z,2.30
2023-02-27T08:54:38.834Z,2.55
2023-02-27T08:58:40.529Z,2.80
2023-02-27T09:02:42.212Z,2.83
2023-02-27T09:06:43.913Z,2.80
2023-02-27T09:10:45.582Z,2.30
2023-02-27T09:14:47.711Z,2.62
2023-02-27T09:18:50.089Z,2.05
2023-02-27T09:22:51.805Z,3.20
2023-02-27T09:26:53.465Z,2.10
2023-02-27T09:30:55.267Z,2.00
2023-02-27T09:34:58.194Z,2.35
2023-02-27T09:38:59.999Z,2.22
2023-02-27T09:43:10.175Z,2.00
2023-02-27T09:47:23.536Z,1.80
2023-02-27T09:51:26.993Z,1.52
2023-02-27T09:55:33.693Z,1.80
2023-02-27T09:59:43.964Z,1.92
2023-02-27T10:04:23.411Z,1.30
2023-02-27T10:08:34.502Z,1.40
2023-02-27T10:13:02.154Z,1.30
2023-02-27T10:17:09.903Z,1.77
2023-02-27T10:21:15.509Z,1.40
2023-02-27T10:25:30.776Z,1.02
2023-02-27T10:29:41.532Z,1.05
2023-02-27T10:33:44.691Z,1.20
2023-02-27T10:37:50.522Z,1.00
2023-02-27T10:41:52.343Z,1.15
2023-02-27T10:45:54.567Z,1.15
2023-02-27T10:49:56.369Z,1.55
2023-02-27T10:54:24.591Z,1.15
2023-02-27T10:58:29.471Z,1.30
2023-02-27T11:02:41.829Z,1.55
2023-02-27T11:06:43.681Z,1.50
2023-02-27T11:11:05.008Z,1.37
2023-02-27T11:15:36.808Z,1.35
2023-02-27T11:19:39.422Z,1.40
2023-02-27T11:24:01.224Z,1.58
2023-02-27T11:28:28.015Z,1.90
2023-02-27T11:32:51.272Z,1.43
2023-02-27T11:37:00.446Z,1.50
2023-02-27T11:41:05.089Z,2.65
2023-02-27T11:46:04.228Z,1.52
2023-02-27T11:50:23.097Z,1.37
2023-02-27T11:54:36.337Z,1.30
2023-02-27T11:58:45.802Z,1.23
2023-02-27T12:02:55.771Z,1.30
2023-02-27T12:07:20.077Z,1.30
2023-02-27T12:11:31.363Z,1.73
2023-02-27T12:15:33.174Z,1.92
2023-02-27T12:19:46.889Z,1.40
2023-02-27T12:24:07.624Z,1.27
2023-02-27T12:28:12.015Z,1.23
2023-02-27T12:32:36.557Z,1.20
2023-02-27T12:36:38.664Z,1.15
2023-02-27T12:41:19.482Z,2.30
2023-02-27T12:45:42.748Z,1.12
2023-02-27T12:50:01.226Z,1.08
2023-02-27T12:54:30.288Z,1.30
2023-02-27T12:58:43.928Z,1.30
2023-02-27T13:03:26.028Z,1.20
2023-02-27T13:07:42.876Z,1.15
2023-02-27T13:11:57.368Z,1.17
2023-02-27T13:16:07.189Z,1.65
2023-02-27T13:20:34.468Z,3.03
2023-02-27T13:24:39.185Z,1.20
2023-02-27T13:28:41.286Z,1.45
2023-02-27T13:33:04.144Z,1.23
2023-02-27T13:37:08.617Z,1.20
2023-02-27T13:41:25.154Z,1.30
2023-02-27T13:45:51.808Z,1.10
2023-02-27T13:49:53.592Z,1.17
2023-02-27T13:54:13.545Z,1.52
2023-02-27T13:58:18.655Z,1.50
2023-02-27T14:02:24.887Z,1.00
2023-02-27T14:06:28.232Z,1.50
2023-02-27T14:10:31.547Z,1.37
2023-02-27T14:14:44.929Z,1.50
2023-02-27T14:19:15.324Z,1.62
2023-02-27T14:23:16.900Z,1.10
2023-02-27T14:27:27.306Z,1.60
2023-02-27T14:31:36.470Z,1.58
2023-02-27T14:35:38.684Z,1.50
2023-02-27T14:39:40.733Z,1.45
2023-02-27T14:43:55.066Z,1.60
2023-02-27T14:47:57.988Z,1.80
2023-02-27T14:52:17.917Z,1.62
2023-02-27T14:56:19.861Z,1.90
2023-02-27T15:00:33.836Z,1.52
2023-02-27T15:04:35.562Z,1.40
2023-02-27T15:08:40.384Z,1.40
2023-02-27T15:12:42.104Z,1.60
2023-02-27T15:16:44.576Z,2.00
2023-02-27T15:20:46.316Z,1.95
2023-02-27T15:24:50.494Z,1.65
2023-02-27T15:28:52.653Z,1.80
2023-02-27T15:32:55.964Z,1.87
2023-02-27T15:36:59.700Z,1.80
2023-02-27T15:41:03.311Z,2.72
2023-02-27T15:45:06.761Z,2.08
2023-02-27T15:49:19.463Z,1.52
2023-02-27T15:53:26.690Z,1.85
2023-02-27T15:57:30.407Z,2.25
2023-02-27T16:01:34.836Z,1.85
2023-02-27T16:05:41.306Z,1.70
2023-02-27T16:09:46.249Z,1.70
2023-02-27T16:13:48.916Z,1.90
2023-02-27T16:17:54.659Z,1.83
2023-02-27T16:22:22.521Z,1.50
2023-02-27T16:30:38.826Z,1.52
2023-02-27T16:34:45.544Z,1.70
2023-02-27T16:38:48.911Z,1.70
2023-02-27T16:42:51.495Z,1.50
2023-02-27T16:46:54.838Z,1.92
2023-02-27T16:50:56.551Z,2.10
2023-02-27T16:54:58.225Z,1.60
2023-02-27T16:59:02.550Z,1.65
2023-02-27T17:03:04.512Z,1.75
2023-02-27T17:07:06.937Z,1.60
2023-02-27T17:11:09.465Z,1.52
2023-02-27T17:15:11.343Z,1.48
2023-02-27T17:19:14.261Z,1.50
2023-02-27T17:23:15.877Z,1.83
2023-02-27T17:27:17.541Z,1.92
2023-02-27T17:31:23.051Z,1.85
2023-02-27T17:35:25.671Z,1.65
2023-02-27T17:39:27.651Z,1.70
2023-02-27T17:43:29.686Z,2.05
2023-02-27T17:47:31.653Z,1.73
2023-02-27T17:51:33.694Z,1.70
2023-02-27T17:55:35.434Z,1.85
2023-02-27T17:59:37.336Z,1.40
2023-02-27T18:03:39.577Z,1.62
2023-02-27T18:07:41.320Z,1.55
2023-02-27T18:11:43.082Z,1.20
2023-02-27T18:15:45.921Z,1.40
2023-02-27T18:19:47.730Z,4.43
2023-02-27T18:23:51.598Z,1.90
2023-02-27T18:27:55.377Z,1.37
2023-02-27T18:31:57.249Z,1.52
2023-02-27T18:35:58.975Z,1.48
2023-02-27T18:40:00.628Z,1.77
2023-02-27T18:44:03.030Z,1.62
2023-02-27T18:48:05.039Z,2.10
2023-02-27T18:52:07.149Z,1.87
2023-02-27T18:56:09.670Z,2.00
2023-02-27T19:00:12.661Z,1.87
2023-02-27T19:04:14.313Z,1.90
2023-02-27T19:08:17.341Z,2.65
2023-02-27T19:12:18.960Z,2.20
2023-02-27T19:16:20.745Z,2.35
2023-02-27T19:20:22.469Z,2.47
2023-02-27T19:24:24.856Z,2.10
2023-02-27T19:28:27.168Z,2.15
2023-02-27T19:32:28.826Z,1.85
2023-02-27T19:36:31.289Z,2.30
2023-02-27T19:40:33.296Z,2.62
2023-02-27T19:44:34.920Z,2.00
2023-02-27T19:48:37.152Z,2.17
2023-02-27T19:52:38.923Z,2.35
2023-02-27T19:56:40.682Z,12.80
2023-02-27T20:00:42.468Z,3.62
2023-02-27T20:04:45.265Z,2.58
2023-02-27T20:08:47.039Z,2.65
2023-02-27T20:12:48.682Z,2.90
2023-02-27T20:16:50.421Z,2.80
2023-02-27T20:21:10.920Z,3.90
2023-02-27T20:25:13.631Z,2.70
2023-02-27T20:29:19.427Z,2.60
2023-02-27T20:33:21.113Z,2.35
2023-02-27T20:37:23.187Z,1.95
2023-02-27T20:41:28.279Z,1.87
2023-02-27T20:45:31.112Z,2.30
2023-02-27T20:49:32.909Z,2.50
2023-02-27T20:53:36.230Z,2.70
2023-02-27T20:57:37.895Z,3.17
2023-02-27T21:01:40.450Z,3.75
2023-02-27T21:05:47.238Z,2.87
2023-02-27T21:09:49.850Z,3.00
2023-02-27T21:13:51.475Z,3.20
2023-02-27T21:17:53.132Z,2.97
2023-02-27T21:21:54.778Z,3.50
2023-02-27T21:25:56.624Z,3.42
2023-02-27T21:29:58.418Z,4.25
2023-02-27T21:34:02.772Z,4.47
2023-02-27T21:38:05.189Z,3.50
2023-02-27T21:42:07.390Z,3.67
2023-02-27T21:46:11.691Z,2.90
2023-02-27T21:50:18.082Z,3.05
2023-02-27T21:54:20.127Z,3.50
2023-02-27T21:58:22.711Z,3.17
2023-02-27T22:02:24.370Z,3.22
2023-02-27T22:06:28.231Z,2.97
2023-02-27T22:10:29.895Z,3.35
2023-02-27T22:14:31.615Z,2.95
2023-02-27T22:18:33.580Z,3.03
2023-02-27T22:22:35.244Z,3.30
2023-02-27T22:26:37.537Z,3.00
2023-02-27T22:30:39.271Z,3.20
2023-02-27T22:34:40.919Z,3.20
2023-02-27T22:38:43.182Z,3.20
2023-02-27T22:42:45.268Z,2.80
2023-02-27T22:46:48.799Z,4.07
2023-02-27T22:51:24.806Z,3.80
2023-02-27T22:55:26.450Z,3.97
2023-02-27T22:59:28.231Z,4.37
2023-02-27T23:03:29.891Z,4.32
2023-02-27T23:07:33.212Z,4.57
2023-02-27T23:11:35.026Z,4.90
2023-02-27T23:15:38.409Z,4.18
2023-02-27T23:19:40.055Z,4.85
2023-02-27T23:23:42.139Z,4.75
2023-02-27T23:27:43.754Z,4.32
2023-02-27T23:31:45.780Z,4.00
2023-02-27T23:35:47.540Z,4.00
2023-02-27T23:39:49.229Z,4.45
2023-02-27T23:43:54.428Z,4.72
2023-02-27T23:47:58.474Z,4.60
2023-02-27T23:52:00.114Z,4.37
2023-02-27T23:56:10.970Z,3.95
